Time;durP1;ratioP1;P1;durP2;ratioP2;P2;SDS_P1;SDS_P2;PMS_P1;PMS_P2;Temp;Humidity;BMP_temperature;BMP_pressure;BME280_temperature;BME280_humidity;BME280_pressure;Samples;Min_cycle;Max_cycle;Signal;HPM_P1;HPM_P2
2022/07/15 00:01:17;;;;;;;6.88;2.20;;;31.60;27.80;;;;;;6009983;29;20333;-69
2022/07/15 00:04:18;;;;;;;3.63;1.83;;;31.60;28.30;;;;;;6017433;29;20038;-69
2022/07/15 00:07:20;;;;;;;7.25;2.20;;;31.60;27.80;;;;;;6015845;29;20045;-69
2022/07/15 00:10:23;;;;;;;3.38;2.20;;;31.60;27.70;;;;;;6012470;29;20038;-69
2022/07/15 00:13:25;;;;;;;2.97;2.15;;;31.60;27.80;;;;;;6012228;29;20029;-69
2022/07/15 00:16:26;;;;;;;5.72;2.42;;;31.40;28.00;;;;;;6012461;29;20030;-70
2022/07/15 00:19:26;;;;;;;6.63;3.50;;;31.30;28.20;;;;;;6012506;29;20456;-69
2022/07/15 00:22:28;;;;;;;10.10;3.83;;;31.30;28.60;;;;;;6011905;29;20038;-70
2022/07/15 00:25:29;;;;;;;5.82;2.80;;;31.30;28.80;;;;;;6013160;29;20034;-69
2022/07/15 00:28:30;;;;;;;7.50;3.70;;;31.20;29.00;;;;;;6014113;29;20117;-69
2022/07/15 00:31:31;;;;;;;7.88;3.88;;;31.10;29.10;;;;;;6028875;29;20068;-69
2022/07/15 00:34:32;;;;;;;7.72;3.88;;;31.10;29.30;;;;;;6006151;29;20101;-69
2022/07/15 00:37:34;;;;;;;10.95;3.42;;;31.00;29.40;;;;;;6012137;29;20425;-69
2022/07/15 00:40:47;;;;;;;9.50;3.33;;;31.00;29.60;;;;;;5993219;29;20106;-69
2022/07/15 00:43:48;;;;;;;5.82;3.22;;;31.00;29.70;;;;;;6002781;29;20052;-69
2022/07/15 00:46:50;;;;;;;4.53;2.78;;;31.00;29.70;;;;;;6012053;29;20021;-69
2022/07/15 00:49:51;;;;;;;3.60;2.45;;;31.00;29.70;;;;;;5998639;29;20026;-69
2022/07/15 00:53:07;;;;;;;3.60;2.25;;;30.90;29.60;;;;;;6016232;29;20412;-70
2022/07/15 00:56:11;;;;;;;2.40;2.00;;;30.80;29.70;;;;;;6008071;29;20492;-70
2022/07/15 00:59:13;;;;;;;3.65;2.08;;;30.80;29.70;;;;;;6011339;29;20118;-69
2022/07/15 01:02:16;;;;;;;2.92;1.98;;;30.70;29.70;;;;;;6024426;29;20058;-69
2022/07/15 01:05:19;;;;;;;2.42;1.88;;;30.60;29.80;;;;;;6026440;29;20038;-70
2022/07/15 01:08:20;;;;;;;5.00;2.00;;;30.50;29.90;;;;;;6011628;29;20030;-70
2022/07/15 01:11:22;;;;;;;2.33;1.80;;;30.50;30.00;;;;;;6013234;29;20029;-69
2022/07/15 01:14:23;;;;;;;4.80;2.00;;;30.40;30.00;;;;;;6023067;29;20054;-69
2022/07/15 01:17:25;;;;;;;7.25;1.80;;;30.30;30.20;;;;;;6014594;29;20030;-69
2022/07/15 01:20:27;;;;;;;3.55;1.80;;;30.30;30.40;;;;;;6008840;29;20113;-70
2022/07/15 01:23:31;;;;;;;4.10;2.20;;;30.20;30.60;;;;;;6010216;29;20094;-70
2022/07/15 01:26:37;;;;;;;2.47;1.90;;;30.10;30.70;;;;;;6026252;29;20503;-68
2022/07/15 01:29:38;;;;;;;3.28;2.00;;;30.00;30.80;;;;;;6011920;29;20037;-68
2022/07/15 01:32:40;;;;;;;3.08;1.77;;;30.00;30.90;;;;;;5992924;29;20038;-68
2022/07/15 01:35:41;;;;;;;3.00;1.92;;;29.90;31.10;;;;;;6024886;29;20033;-68
2022/07/15 01:38:43;;;;;;;5.55;2.13;;;29.90;31.10;;;;;;6024296;29;20483;-68
2022/07/15 01:41:44;;;;;;;4.22;1.80;;;29.80;31.20;;;;;;6007937;29;20482;-69
2022/07/15 01:44:49;;;;;;;2.85;1.77;;;29.80;31.30;;;;;;6009431;29;20061;-69
2022/07/15 01:47:52;;;;;;;3.45;1.88;;;29.80;31.50;;;;;;6022659;29;20026;-69
2022/07/15 01:51:13;;;;;;;2.10;1.90;;;29.70;31.50;;;;;;6013042;29;20068;-70
2022/07/15 01:54:15;;;;;;;3.58;2.25;;;29.70;31.50;;;;;;6009680;29;20514;-70
2022/07/15 01:57:17;;;;;;;10.88;2.22;;;29.60;31.50;;;;;;6015011;29;20101;-68
2022/07/15 02:00:24;;;;;;;2.80;2.00;;;29.60;31.60;;;;;;6029532;29;20157;-70
2022/07/15 02:03:26;;;;;;;5.43;2.35;;;29.70;31.80;;;;;;6020373;29;20379;-69
2022/07/15 02:06:28;;;;;;;3.50;2.05;;;29.70;31.90;;;;;;6014191;29;20060;-70
2022/07/15 02:09:30;;;;;;;2.40;1.70;;;29.80;31.70;;;;;;6013399;29;20030;-69
2022/07/15 02:12:32;;;;;;;5.60;1.60;;;29.90;31.70;;;;;;6029445;29;20038;-69
2022/07/15 02:15:33;;;;;;;6.65;1.98;;;30.00;31.70;;;;;;6029061;29;20069;-69
2022/07/15 02:18:37;;;;;;;3.95;1.83;;;29.90;31.70;;;;;;6014097;29;20424;-69
2022/07/15 02:21:38;;;;;;;2.75;1.85;;;29.80;31.70;;;;;;6014653;29;20114;-70
2022/07/15 02:24:39;;;;;;;2.00;1.67;;;29.70;31.80;;;;;;6014569;29;20124;-70
2022/07/15 02:27:41;;;;;;;3.35;1.77;;;29.70;32.00;;;;;;6011652;29;20459;-69
2022/07/15 02:30:43;;;;;;;2.25;1.52;;;29.70;32.70;;;;;;6038222;29;20364;-70
2022/07/15 02:33:46;;;;;;;2.50;1.80;;;29.60;32.00;;;;;;6021150;29;20061;-70
2022/07/15 02:36:47;;;;;;;3.50;1.95;;;29.50;32.10;;;;;;6012606;29;20037;-70
2022/07/15 02:39:50;;;;;;;3.47;1.70;;;29.50;32.10;;;;;;6015091;29;20475;-69
2022/07/15 02:42:53;;;;;;;2.35;1.73;;;29.40;32.10;;;;;;6026958;29;20523;-69
2022/07/15 02:45:55;;;;;;;3.08;2.30;;;29.40;32.00;;;;;;6026523;29;20030;-70
2022/07/15 02:48:56;;;;;;;4.13;1.90;;;29.40;32.10;;;;;;6026353;29;20026;-70
2022/07/15 02:51:59;;;;;;;8.80;1.90;;;29.30;32.10;;;;;;6025211;29;20102;-70
2022/07/15 02:55:05;;;;;;;4.93;1.85;;;29.20;32.30;;;;;;6014266;29;20049;-70
2022/07/15 02:58:06;;;;;;;3.05;2.15;;;29.10;32.60;;;;;;6014543;29;20033;-69
2022/07/15 03:01:07;;;;;;;2.97;1.85;;;29.10;32.80;;;;;;6012387;29;20044;-70
2022/07/15 03:04:09;;;;;;;2.85;1.88;;;29.00;32.80;;;;;;6014580;29;20037;-69
2022/07/15 03:07:10;;;;;;;4.53;2.00;;;29.00;32.90;;;;;;6014397;29;20044;-70
2022/07/15 03:10:12;;;;;;;6.93;1.70;;;29.00;33.00;;;;;;6013991;29;20081;-70
2022/07/15 03:13:14;;;;;;;2.80;1.90;;;29.00;32.90;;;;;;6028142;29;20045;-69
2022/07/15 03:16:15;;;;;;;1.88;1.55;;;29.10;33.00;;;;;;6023301;29;20479;-69
2022/07/15 03:19:20;;;;;;;3.28;1.65;;;29.10;33.00;;;;;;6030829;29;20129;-70
2022/07/15 03:22:23;;;;;;;1.73;1.60;;;29.10;33.00;;;;;;6015425;29;20490;-69
2022/07/15 03:25:24;;;;;;;1.98;1.77;;;29.00;33.20;;;;;;6035305;29;20062;-69
2022/07/15 03:28:25;;;;;;;2.63;1.77;;;29.00;33.40;;;;;;6012854;29;20030;-69
2022/07/15 03:31:27;;;;;;;4.32;2.30;;;28.90;33.70;;;;;;6012766;29;20117;-69
2022/07/15 03:34:28;;;;;;;9.43;2.25;;;28.90;34.00;;;;;;6012729;29;20077;-69
2022/07/15 03:37:30;;;;;;;10.35;2.30;;;28.90;34.20;;;;;;5995531;29;20038;-69
2022/07/15 03:40:31;;;;;;;3.67;2.25;;;28.80;34.40;;;;;;6026339;29;20061;-69
2022/07/15 03:43:32;;;;;;;7.28;2.00;;;28.70;34.50;;;;;;6026631;29;20471;-69
2022/07/15 03:46:34;;;;;;;2.85;2.00;;;28.70;34.60;;;;;;6012181;29;20200;-69
2022/07/15 03:49:39;;;;;;;6.30;1.90;;;28.60;34.80;;;;;;6012879;29;20086;-69
2022/07/15 03:52:41;;;;;;;9.88;2.35;;;28.60;34.80;;;;;;6027086;29;20060;-69
2022/07/15 03:55:42;;;;;;;8.88;1.98;;;28.50;34.90;;;;;;6027185;29;20038;-69
2022/07/15 03:58:44;;;;;;;3.03;2.00;;;28.50;35.00;;;;;;6013450;29;20033;-68
2022/07/15 04:01:46;;;;;;;9.45;2.30;;;28.50;35.00;;;;;;6016995;29;20132;-69
2022/07/15 04:04:47;;;;;;;6.72;2.15;;;28.40;35.10;;;;;;6007426;29;20041;-70
2022/07/15 04:07:48;;;;;;;8.95;2.00;;;28.40;35.10;;;;;;6012424;29;20365;-69
2022/07/15 04:10:50;;;;;;;6.15;2.00;;;28.40;35.20;;;;;;6027478;29;20030;-69
2022/07/15 04:13:52;;;;;;;4.43;2.00;;;28.40;35.20;;;;;;6025668;29;20033;-69
2022/07/15 04:16:53;;;;;;;2.30;1.75;;;28.40;35.30;;;;;;6012759;29;20381;-69
2022/07/15 04:20:21;;;;;;;8.23;2.35;;;28.40;35.30;;;;;;6011882;29;20140;-69
2022/07/15 04:23:25;;;;;;;7.93;3.03;;;28.40;35.30;;;;;;6011204;29;20393;-69
2022/07/15 04:26:27;;;;;;;3.33;1.98;;;28.40;35.30;;;;;;6010591;29;20414;-69
2022/07/15 04:29:30;;;;;;;2.13;1.73;;;28.40;35.30;;;;;;6024712;29;20049;-68
2022/07/15 04:32:31;;;;;;;1.58;1.40;;;28.40;35.20;;;;;;6023438;29;20026;-69
2022/07/15 04:35:32;;;;;;;5.50;1.80;;;28.40;35.10;;;;;;6010544;29;20452;-69
2022/07/15 04:38:39;;;;;;;2.90;2.40;;;28.30;35.10;;;;;;6012980;29;20034;-70
2022/07/15 04:41:40;;;;;;;6.13;2.15;;;28.30;35.20;;;;;;6008090;29;20044;-69
2022/07/15 04:44:41;;;;;;;3.53;2.17;;;28.30;35.40;;;;;;6010822;29;20098;-69
2022/07/15 04:47:44;;;;;;;4.35;2.17;;;28.30;35.50;;;;;;6014033;29;20436;-70
2022/07/15 04:50:54;;;;;;;3.95;2.10;;;28.20;35.60;;;;;;6011743;29;20034;-70
2022/07/15 04:53:59;;;;;;;3.00;2.17;;;28.10;35.70;;;;;;6017479;29;20058;-69
2022/07/15 04:57:01;;;;;;;3.53;2.13;;;28.10;35.70;;;;;;6010970;29;20535;-69
2022/07/15 05:00:04;;;;;;;3.35;2.40;;;28.10;35.80;;;;;;6027062;29;20074;-69
2022/07/15 05:03:10;;;;;;;7.57;2.10;;;28.00;35.80;;;;;;6010567;29;20069;-69
2022/07/15 05:06:12;;;;;;;4.93;1.80;;;28.10;35.90;;;;;;6016453;29;20215;-70
2022/07/15 05:09:14;;;;;;;3.83;1.83;;;28.10;35.80;;;;;;6013755;29;20371;-69
2022/07/15 05:12:16;;;;;;;7.00;1.92;;;28.10;36.20;;;;;;6011083;29;20030;-69
2022/07/15 05:15:26;;;;;;;2.83;1.67;;;28.10;35.80;;;;;;6025465;29;20464;-69
2022/07/15 05:18:27;;;;;;;2.13;1.75;;;28.00;35.90;;;;;;6025044;29;20060;-69
2022/07/15 05:21:32;;;;;;;7.25;1.88;;;28.00;35.90;;;;;;5995105;29;20030;-69
2022/07/15 05:24:33;;;;;;;3.60;1.77;;;28.00;36.10;;;;;;6008019;29;20030;-69
2022/07/15 05:27:38;;;;;;;2.55;1.80;;;27.90;36.30;;;;;;6009109;29;20456;-69
2022/07/15 05:30:40;;;;;;;8.05;1.83;;;27.90;36.50;;;;;;6032745;29;20033;-69
2022/07/15 05:33:43;;;;;;;2.20;1.88;;;28.00;36.60;;;;;;6023003;29;20038;-69
2022/07/15 05:36:45;;;;;;;3.42;1.80;;;28.00;36.70;;;;;;6009451;29;20037;-69
2022/07/15 05:39:54;;;;;;;3.88;1.67;;;28.00;36.60;;;;;;6024965;29;20113;-68
2022/07/15 05:43:07;;;;;;;7.95;1.92;;;28.10;36.70;;;;;;6011516;29;20535;-69
2022/07/15 05:46:11;;;;;;;7.60;2.20;;;28.10;36.70;;;;;;6014323;29;20070;-70
2022/07/15 05:49:23;;;;;;;2.97;1.95;;;28.10;36.60;;;;;;6028594;29;20061;-70
2022/07/15 05:52:27;;;;;;;3.63;1.80;;;28.10;36.50;;;;;;5998868;29;20041;-70
2022/07/15 05:55:29;;;;;;;7.00;2.25;;;28.20;36.50;;;;;;6023824;29;20034;-69
2022/07/15 05:58:30;;;;;;;4.05;2.10;;;28.30;36.50;;;;;;6015063;29;20038;-70
2022/07/15 06:01:31;;;;;;;9.63;2.42;;;28.30;36.40;;;;;;6007919;29;20041;-70
2022/07/15 06:04:34;;;;;;;3.85;2.05;;;28.30;36.30;;;;;;6023057;29;20114;-70
2022/07/15 06:07:35;;;;;;;3.40;2.22;;;28.30;36.40;;;;;;6006720;29;20073;-70
2022/07/15 06:10:37;;;;;;;3.72;2.20;;;28.40;36.50;;;;;;6006359;29;20034;-70
2022/07/15 06:13:38;;;;;;;3.10;2.38;;;28.40;36.40;;;;;;6021398;29;20038;-69
2022/07/15 06:16:40;;;;;;;3.13;2.33;;;28.40;36.40;;;;;;6022235;29;20034;-69
2022/07/15 06:19:41;;;;;;;6.70;2.45;;;28.40;36.50;;;;;;6012285;29;20029;-70
2022/07/15 06:22:43;;;;;;;11.35;2.67;;;28.50;36.50;;;;;;6006464;29;20054;-70
2022/07/15 06:25:44;;;;;;;7.97;2.40;;;28.60;36.50;;;;;;6018099;29;20490;-70
2022/07/15 06:28:45;;;;;;;7.10;2.20;;;28.60;36.40;;;;;;6009863;29;20022;-70
2022/07/15 06:31:46;;;;;;;3.67;2.42;;;28.70;36.50;;;;;;6009889;29;20082;-71
2022/07/15 06:34:47;;;;;;;3.40;2.20;;;28.80;36.30;;;;;;6010335;29;20094;-69
2022/07/15 06:37:48;;;;;;;4.18;2.50;;;28.80;35.80;;;;;;6014468;29;20026;-69
2022/07/15 06:40:50;;;;;;;13.10;2.30;;;28.80;35.50;;;;;;6010568;29;20042;-69
2022/07/15 06:43:52;;;;;;;5.68;2.40;;;28.90;35.40;;;;;;6013990;29;20034;-69
2022/07/15 06:47:19;;;;;;;5.28;2.30;;;28.90;35.40;;;;;;6011658;29;20057;-70
2022/07/15 06:50:22;;;;;;;9.57;2.50;;;29.10;35.30;;;;;;6009471;29;20038;-69
2022/07/15 06:53:25;;;;;;;3.45;2.53;;;29.20;35.30;;;;;;6010024;29;20046;-70
2022/07/15 06:56:26;;;;;;;7.25;2.08;;;29.30;35.20;;;;;;6008419;29;20044;-70
2022/07/15 06:59:27;;;;;;;6.38;2.22;;;29.40;35.10;;;;;;6023069;29;20064;-70
2022/07/15 07:02:30;;;;;;;2.85;2.05;;;29.40;34.90;;;;;;6008235;29;20482;-70
2022/07/15 07:05:32;;;;;;;9.48;2.50;;;29.50;34.90;;;;;;6011841;29;20030;-69
2022/07/15 07:08:33;;;;;;;8.38;2.75;;;29.60;34.60;;;;;;6025670;29;20040;-68
2022/07/15 07:11:34;;;;;;;2.78;2.38;;;29.60;34.50;;;;;;6006142;29;20037;-69
2022/07/15 07:14:35;;;;;;;2.70;2.13;;;29.70;34.50;;;;;;6013023;29;20038;-71
2022/07/15 07:17:36;;;;;;;4.97;2.15;;;29.80;34.40;;;;;;6017723;29;20076;-71
2022/07/15 07:20:37;;;;;;;10.57;1.92;;;29.90;34.30;;;;;;6009707;29;20428;-69
2022/07/15 07:23:39;;;;;;;4.90;2.42;;;29.90;33.90;;;;;;6009937;29;20042;-70
2022/07/15 07:26:40;;;;;;;4.60;2.42;;;30.10;33.80;;;;;;6010482;29;20034;-70
2022/07/15 07:29:41;;;;;;;5.55;2.58;;;30.10;33.60;;;;;;6011627;29;20026;-70
2022/07/15 07:32:42;;;;;;;7.40;2.70;;;30.30;33.50;;;;;;6012587;29;20034;-70
2022/07/15 07:35:44;;;;;;;11.63;2.95;;;30.40;33.40;;;;;;6012791;29;20034;-69
2022/07/15 07:38:45;;;;;;;4.43;2.22;;;30.40;33.30;;;;;;6018452;29;20364;-69
2022/07/15 07:41:47;;;;;;;3.38;2.17;;;30.10;34.00;;;;;;6011861;29;20041;-68
2022/07/15 07:44:48;;;;;;;3.10;2.35;;;29.70;34.90;;;;;;6013628;29;20030;-69
2022/07/15 07:47:49;;;;;;;4.00;2.60;;;29.50;35.20;;;;;;6009853;29;20422;-68
2022/07/15 07:50:53;;;;;;;6.05;2.30;;;29.50;35.60;;;;;;6011200;29;20018;-69
2022/07/15 07:53:54;;;;;;;3.42;2.15;;;29.40;35.80;;;;;;6021374;29;20084;-69
2022/07/15 07:56:55;;;;;;;5.05;2.28;;;29.40;35.80;;;;;;6007845;29;20025;-69
2022/07/15 07:59:56;;;;;;;17.48;2.53;;;29.50;35.80;;;;;;6008373;29;20038;-69
2022/07/15 08:02:59;;;;;;;2.92;1.95;;;29.80;35.70;;;;;;6020485;29;20401;-67
2022/07/15 08:06:00;;;;;;;5.35;2.60;;;29.90;35.50;;;;;;6011827;29;20032;-69
2022/07/15 08:09:01;;;;;;;5.30;2.10;;;30.20;35.20;;;;;;6009685;29;20034;-69
2022/07/15 08:12:03;;;;;;;7.35;2.40;;;30.40;35.00;;;;;;6006805;29;20030;-69
2022/07/15 08:15:07;;;;;;;3.03;2.45;;;30.70;34.50;;;;;;6010260;29;20042;-69
2022/07/15 08:18:08;;;;;;;5.60;2.47;;;30.80;34.30;;;;;;6009085;29;20038;-70
2022/07/15 08:21:09;;;;;;;6.95;2.22;;;31.00;34.10;;;;;;6019870;29;20037;-69
2022/07/15 08:24:12;;;;;;;3.28;2.10;;;31.10;33.80;;;;;;6009946;29;20496;-69
2022/07/15 08:27:13;;;;;;;7.82;2.50;;;31.20;33.70;;;;;;6009266;29;20030;-69
2022/07/15 08:30:14;;;;;;;6.97;2.35;;;31.30;33.70;;;;;;6010145;29;20030;-68
2022/07/15 08:33:16;;;;;;;7.18;2.38;;;31.40;33.80;;;;;;6009124;29;20053;-70
2022/07/15 08:36:17;;;;;;;4.03;2.72;;;31.50;33.60;;;;;;6009069;29;20109;-69
2022/07/15 08:39:18;;;;;;;5.97;2.17;;;31.60;33.60;;;;;;6008296;29;20040;-70
2022/07/15 08:42:19;;;;;;;8.73;2.30;;;31.70;33.30;;;;;;6009071;29;20046;-69
2022/07/15 08:45:20;;;;;;;3.58;2.05;;;31.80;33.00;;;;;;6011226;29;20026;-69
2022/07/15 08:48:28;;;;;;;6.93;2.00;;;32.00;32.90;;;;;;6007382;29;20050;-69
2022/07/15 08:51:32;;;;;;;3.00;2.03;;;32.10;32.50;;;;;;6021767;29;20030;-69
2022/07/15 08:54:33;;;;;;;10.57;2.28;;;32.20;32.10;;;;;;6001169;29;20069;-69
2022/07/15 08:57:36;;;;;;;8.95;2.22;;;32.40;31.90;;;;;;6027674;29;20033;-69
2022/07/15 09:00:37;;;;;;;2.22;1.70;;;32.50;31.50;;;;;;6008171;29;20029;-70
2022/07/15 09:03:38;;;;;;;3.28;2.22;;;32.60;31.00;;;;;;6006659;29;20125;-69
2022/07/15 09:06:45;;;;;;;4.35;2.13;;;32.70;30.50;;;;;;6020694;29;20098;-69
2022/07/15 09:09:47;;;;;;;8.70;2.13;;;32.80;30.40;;;;;;5975767;29;20050;-70
2022/07/15 09:12:54;;;;;;;6.22;1.90;;;32.90;30.30;;;;;;5986018;29;20033;-69
2022/07/15 09:15:57;;;;;;;9.77;2.00;;;33.00;30.00;;;;;;5981553;29;20456;-70
2022/07/15 09:18:58;;;;;;;3.97;1.80;;;33.10;30.00;;;;;;5980747;29;20341;-70
2022/07/15 09:22:02;;;;;;;1.92;1.75;;;33.10;30.00;;;;;;5985612;29;20073;-69
2022/07/15 09:25:08;;;;;;;2.03;1.50;;;33.20;29.90;;;;;;5984084;29;20057;-69
2022/07/15 09:28:09;;;;;;;1.83;1.60;;;33.20;30.00;;;;;;5998672;29;20465;-69
2022/07/15 09:34:59;;;;;;;3.47;1.90;;;33.40;30.60;;;;;;5973941;29;20050;-70
2022/07/15 09:38:00;;;;;;;3.10;1.92;;;33.40;30.60;;;;;;5983512;29;20107;-69
2022/07/15 09:41:02;;;;;;;3.67;1.55;;;33.50;30.70;;;;;;5980587;29;20061;-69
2022/07/15 09:44:14;;;;;;;2.78;1.63;;;33.50;30.70;;;;;;5977505;29;20487;-69
2022/07/15 09:47:18;;;;;;;7.35;1.60;;;33.60;30.70;;;;;;5997831;29;20112;-69
2022/07/15 09:50:34;;;;;;;2.50;1.70;;;33.60;30.60;;;;;;5981152;29;20062;-70
2022/07/15 09:53:36;;;;;;;4.72;1.60;;;33.60;30.60;;;;;;5983989;29;20121;-70
2022/07/15 09:56:38;;;;;;;2.13;1.58;;;33.60;30.60;;;;;;5983163;29;20023;-70
2022/07/15 09:59:39;;;;;;;4.20;1.60;;;33.60;30.60;;;;;;5982185;29;20485;-71
2022/07/15 10:02:40;;;;;;;1.92;1.42;;;33.70;30.50;;;;;;5980721;29;20113;-71
2022/07/15 10:05:43;;;;;;;7.55;1.60;;;33.70;30.40;;;;;;5981015;29;20107;-72
2022/07/15 10:08:47;;;;;;;7.72;2.10;;;33.80;30.20;;;;;;5981129;29;20030;-70
2022/07/15 10:11:56;;;;;;;2.13;1.40;;;33.90;30.20;;;;;;5985386;29;20022;-70
2022/07/15 10:15:03;;;;;;;4.68;1.70;;;33.90;29.80;;;;;;5971011;29;20039;-73
2022/07/15 10:18:15;;;;;;;2.70;1.42;;;33.90;29.90;;;;;;5986020;29;20062;-73
2022/07/15 10:21:34;;;;;;;4.90;1.52;;;33.80;30.10;;;;;;5986078;29;20090;-73
2022/07/15 10:25:09;;;;;;;2.08;1.60;;;33.70;30.20;;;;;;5987042;29;20042;-72
2022/07/15 10:28:15;;;;;;;3.08;1.83;;;33.60;30.20;;;;;;5986956;29;20054;-73
2022/07/15 10:31:21;;;;;;;2.55;1.30;;;33.80;30.10;;;;;;5979914;29;20084;-72
2022/07/15 10:34:23;;;;;;;2.45;1.67;;;34.00;30.00;;;;;;5966793;29;20532;-73
2022/07/15 10:37:27;;;;;;;4.47;2.30;;;34.20;29.80;;;;;;5988398;29;20034;-73
2022/07/15 10:41:03;;;;;;;2.55;1.45;;;34.20;29.60;;;;;;5972364;29;20083;-72
2022/07/15 10:44:10;;;;;;;6.00;1.63;;;34.30;29.60;;;;;;5982549;29;20041;-73
2022/07/15 10:47:14;;;;;;;7.13;1.80;;;34.40;29.50;;;;;;5988400;29;20476;-73
2022/07/15 10:50:36;;;;;;;3.25;1.60;;;34.40;29.40;;;;;;5999017;29;20342;-74
2022/07/15 10:53:48;;;;;;;1.83;1.60;;;34.40;29.30;;;;;;5988143;29;20186;-73
2022/07/15 10:56:50;;;;;;;6.75;1.77;;;34.50;29.20;;;;;;5984316;29;20038;-72
2022/07/15 10:59:56;;;;;;;2.00;1.42;;;34.50;29.00;;;;;;5988470;29;20031;-72
2022/07/15 11:03:08;;;;;;;7.57;1.50;;;34.50;29.00;;;;;;5969128;29;20043;-73
2022/07/15 11:06:09;;;;;;;6.10;2.10;;;34.50;29.00;;;;;;5980943;29;20034;-74
2022/07/15 11:09:10;;;;;;;5.00;1.95;;;34.80;28.80;;;;;;5982248;29;20030;-74
2022/07/15 11:12:12;;;;;;;2.45;1.77;;;35.40;28.10;;;;;;5984735;29;20410;-74
2022/07/15 11:15:18;;;;;;;2.20;1.67;;;36.30;27.20;;;;;;5985611;29;20224;-76
2022/07/15 11:18:19;;;;;;;2.85;1.50;;;37.00;26.40;;;;;;6003385;29;20079;-73
2022/07/15 11:21:21;;;;;;;5.50;1.70;;;37.70;25.80;;;;;;5979952;29;20031;-74
2022/07/15 11:24:24;;;;;;;2.78;1.60;;;38.20;25.30;;;;;;5988938;29;20110;-73
2022/07/15 11:27:25;;;;;;;3.15;1.60;;;38.60;24.90;;;;;;5985171;29;20030;-74
2022/07/15 11:30:36;;;;;;;15.55;2.13;;;38.90;24.40;;;;;;5984979;29;20588;-74
2022/07/15 11:33:39;;;;;;;2.58;1.50;;;39.20;23.90;;;;;;5982128;29;20034;-71
2022/07/15 11:36:40;;;;;;;2.70;1.42;;;39.30;23.80;;;;;;5982826;29;20062;-74
2022/07/15 11:39:44;;;;;;;5.15;1.60;;;39.50;23.80;;;;;;5979956;29;20026;-74
2022/07/15 11:46:06;;;;;;;5.15;1.60;;;39.80;23.40;;;;;;5978656;29;20106;-74
2022/07/15 11:49:10;;;;;;;2.03;1.40;;;39.80;23.30;;;;;;5981659;29;20110;-73
2022/07/15 11:52:21;;;;;;;1.77;1.40;;;39.80;23.20;;;;;;5985093;29;20051;-74
2022/07/15 11:55:23;;;;;;;5.28;1.50;;;39.70;23.20;;;;;;5979358;29;20042;-73
2022/07/15 11:58:55;;;;;;;1.52;1.42;;;39.70;23.00;;;;;;5985181;29;20118;-73
2022/07/15 12:02:03;;;;;;;4.05;1.48;;;39.70;22.90;;;;;;5982831;29;20046;-73
2022/07/15 12:05:07;;;;;;;2.97;1.58;;;39.70;22.70;;;;;;5982997;29;20165;-73
2022/07/15 12:08:08;;;;;;;4.32;1.45;;;39.60;22.60;;;;;;5983772;29;20708;-73
2022/07/15 12:11:29;;;;;;;7.13;1.63;;;39.50;22.60;;;;;;5983328;29;20085;-73
2022/07/15 12:14:30;;;;;;;7.55;1.42;;;39.60;22.60;;;;;;5979440;29;21488;-72
2022/07/15 12:17:31;;;;;;;2.38;1.40;;;39.70;22.20;;;;;;5979542;29;20404;-73
2022/07/15 12:20:33;;;;;;;1.75;1.50;;;39.70;22.00;;;;;;5981561;29;20034;-73
2022/07/15 12:23:34;;;;;;;2.60;1.23;;;39.80;21.80;;;;;;5981457;29;20041;-73
2022/07/15 12:26:41;;;;;;;5.22;1.50;;;39.90;21.70;;;;;;5966469;29;20038;-73
2022/07/15 12:29:43;;;;;;;2.40;1.27;;;40.20;21.20;;;;;;5985671;29;20037;-73
2022/07/15 12:32:44;;;;;;;2.67;1.33;;;40.30;20.90;;;;;;5968336;29;20034;-73
2022/07/15 12:35:45;;;;;;;2.13;1.30;;;40.40;20.60;;;;;;5972646;29;20038;-73
2022/07/15 12:39:08;;;;;;;9.02;1.58;;;40.50;20.40;;;;;;5978255;29;20042;-74
2022/07/15 12:42:11;;;;;;;5.80;1.55;;;40.40;20.40;;;;;;5986701;29;20061;-73
2022/07/15 12:45:25;;;;;;;2.30;1.25;;;40.50;20.30;;;;;;5969838;29;20041;-73
2022/07/15 12:48:26;;;;;;;5.53;1.50;;;40.60;20.20;;;;;;5983710;29;21341;-73
2022/07/15 12:51:28;;;;;;;2.75;1.40;;;40.80;19.90;;;;;;5984565;29;20042;-73
2022/07/15 12:54:29;;;;;;;5.32;1.50;;;40.80;19.60;;;;;;5988226;29;20042;-72
2022/07/15 12:57:36;;;;;;;1.83;1.23;;;40.80;19.70;;;;;;5986276;29;20064;-73
2022/07/15 13:00:39;;;;;;;2.55;1.15;;;40.90;19.50;;;;;;5981629;29;20461;-73
2022/07/15 13:03:41;;;;;;;6.32;1.10;;;41.20;19.30;;;;;;5984298;29;20491;-74
2022/07/15 13:06:42;;;;;;;3.70;1.35;;;41.40;19.10;;;;;;5985070;29;20030;-73
2022/07/15 13:09:43;;;;;;;1.55;1.25;;;41.60;18.90;;;;;;5984634;29;20027;-71
2022/07/15 13:12:45;;;;;;;4.85;1.13;;;41.80;18.70;;;;;;5997353;29;20447;-74
2022/07/15 13:15:47;;;;;;;2.38;1.30;;;42.00;18.50;;;;;;5979272;29;20037;-73
2022/07/15 13:18:48;;;;;;;3.13;1.30;;;42.20;18.30;;;;;;5983400;29;20030;-74
2022/07/15 13:21:49;;;;;;;3.13;1.33;;;42.40;18.10;;;;;;6001130;29;20031;-75
2022/07/15 13:24:50;;;;;;;1.75;1.20;;;42.50;17.90;;;;;;5987189;29;20046;-74
2022/07/15 13:27:52;;;;;;;1.10;1.00;;;42.70;17.80;;;;;;5984072;29;20089;-74
2022/07/15 13:30:53;;;;;;;5.65;1.20;;;42.90;17.50;;;;;;5985285;29;20046;-74
2022/07/15 13:33:54;;;;;;;4.28;1.40;;;42.90;17.50;;;;;;5987008;29;20027;-74
2022/07/15 13:36:56;;;;;;;8.85;1.35;;;43.30;17.30;;;;;;5992533;29;20035;-73
2022/07/15 13:39:57;;;;;;;5.05;1.80;;;43.70;17.00;;;;;;5985822;29;20058;-74
2022/07/15 13:42:58;;;;;;;2.28;1.45;;;43.90;16.80;;;;;;5988014;29;20045;-73
2022/07/15 13:45:59;;;;;;;4.40;1.38;;;44.00;16.70;;;;;;5988237;29;20426;-73
2022/07/15 13:49:00;;;;;;;2.67;1.50;;;44.30;16.60;;;;;;5990256;29;20090;-72
2022/07/15 13:52:01;;;;;;;3.55;1.30;;;44.50;16.50;;;;;;5990537;29;20358;-73
2022/07/15 13:55:02;;;;;;;4.15;1.30;;;44.70;16.30;;;;;;5988852;29;20070;-71
2022/07/15 13:58:04;;;;;;;3.63;1.92;;;44.70;16.30;;;;;;5985224;29;20046;-71
2022/07/15 14:01:05;;;;;;;4.57;1.73;;;44.70;16.30;;;;;;6000256;29;20041;-72
2022/07/15 14:04:06;;;;;;;2.60;1.30;;;44.80;16.20;;;;;;5988649;29;20066;-72
2022/07/15 14:07:07;;;;;;;1.40;1.10;;;45.00;15.80;;;;;;5989915;29;20027;-73
2022/07/15 14:10:09;;;;;;;2.30;1.25;;;45.10;15.80;;;;;;5989477;29;20026;-73
2022/07/15 14:13:10;;;;;;;6.38;1.85;;;45.40;15.70;;;;;;5987161;29;20030;-73
2022/07/15 14:16:11;;;;;;;9.30;1.45;;;45.40;15.50;;;;;;5991924;29;20041;-73
2022/07/15 14:19:12;;;;;;;1.80;1.20;;;45.60;15.50;;;;;;5991938;29;20030;-73
2022/07/15 14:22:13;;;;;;;9.80;1.20;;;45.60;15.30;;;;;;5991940;29;20042;-72
2022/07/15 14:25:14;;;;;;;4.78;1.10;;;45.80;15.30;;;;;;5990316;29;20113;-73
2022/07/15 14:28:15;;;;;;;1.48;1.00;;;45.90;15.20;;;;;;5990814;29;20030;-72
2022/07/15 14:31:17;;;;;;;2.88;1.02;;;46.40;15.00;;;;;;5991704;29;20122;-73
2022/07/15 14:34:18;;;;;;;2.20;1.15;;;46.40;14.80;;;;;;5991091;29;20117;-72
2022/07/15 14:37:19;;;;;;;1.27;1.17;;;46.10;14.90;;;;;;5992164;29;20484;-72
2022/07/15 14:40:21;;;;;;;2.40;1.13;;;45.80;15.00;;;;;;5989552;29;20452;-72
2022/07/15 14:43:22;;;;;;;2.90;1.13;;;45.90;14.90;;;;;;5990770;29;20026;-73
2022/07/15 14:46:23;;;;;;;2.17;0.90;;;46.00;14.80;;;;;;6009821;29;20045;-72
2022/07/15 14:49:24;;;;;;;6.22;1.35;;;45.70;14.90;;;;;;5991545;29;20035;-72
2022/07/15 14:52:25;;;;;;;4.05;1.00;;;45.50;15.10;;;;;;5990060;29;20042;-72
2022/07/15 14:55:27;;;;;;;1.42;1.27;;;45.30;15.30;;;;;;5992456;29;20034;-72
2022/07/15 14:58:28;;;;;;;4.63;1.13;;;45.20;15.30;;;;;;6010988;29;20034;-73
2022/07/15 15:01:29;;;;;;;1.35;1.10;;;45.20;15.30;;;;;;5988591;29;20113;-72
2022/07/15 15:04:30;;;;;;;2.15;1.00;;;44.80;15.50;;;;;;5987308;29;20046;-72
2022/07/15 15:07:31;;;;;;;2.45;1.20;;;44.50;15.80;;;;;;6002741;29;20030;-72
2022/07/15 15:10:32;;;;;;;1.40;0.95;;;44.30;16.00;;;;;;5989857;29;20034;-73
2022/07/15 15:13:33;;;;;;;1.27;1.00;;;44.20;16.10;;;;;;5995179;29;20083;-72
2022/07/15 15:16:34;;;;;;;2.20;1.20;;;43.50;16.70;;;;;;6004729;29;20042;-71
2022/07/15 15:19:37;;;;;;;2.25;0.90;;;42.50;17.30;;;;;;5989365;29;20121;-72
2022/07/15 15:22:39;;;;;;;3.13;1.30;;;41.80;17.90;;;;;;5989821;29;20030;-72
2022/07/15 15:29:00;;;;;;;2.83;1.02;;;40.90;18.60;;;;;;5988281;29;20102;-73
2022/07/15 15:32:02;;;;;;;2.85;1.08;;;41.00;18.60;;;;;;5989321;29;20035;-73
2022/07/15 15:35:04;;;;;;;9.32;1.50;;;41.10;18.40;;;;;;5989653;29;20090;-73
2022/07/15 15:38:05;;;;;;;2.13;0.98;;;41.30;18.30;;;;;;5989774;29;20045;-72
2022/07/15 15:41:06;;;;;;;0.80;0.80;;;41.30;18.30;;;;;;5990077;29;20034;-73
2022/07/15 15:44:07;;;;;;;3.20;1.15;;;41.30;18.40;;;;;;5989679;29;20038;-73
2022/07/15 15:47:08;;;;;;;1.63;1.20;;;41.50;18.30;;;;;;5987629;29;20130;-71
2022/07/15 15:50:10;;;;;;;2.63;1.20;;;41.50;18.30;;;;;;5989192;29;20140;-72
2022/07/15 15:53:11;;;;;;;2.38;1.17;;;41.90;18.30;;;;;;5987296;29;20129;-72
2022/07/15 15:56:12;;;;;;;4.90;1.63;;;42.30;18.10;;;;;;5994463;29;20038;-72
2022/07/15 15:59:13;;;;;;;2.08;1.10;;;42.30;18.10;;;;;;5987670;29;20049;-72
2022/07/15 16:02:15;;;;;;;3.47;1.58;;;42.40;18.10;;;;;;5987604;29;20079;-72